Time;durP1;ratioP1;P1;durP2;ratioP2;P2;SDS_P1;SDS_P2;PMS_P1;PMS_P2;Temp;Humidity;BMP_temperature;BMP_pressure;BME280_temperature;BME280_humidity;BME280_pressure;Samples;Min_cycle;Max_cycle;Signal;HPM_P1;HPM_P2
2023/11/12 00:01:21;;;;;;;9.52;4.45;;;11.50;96.70;;;;;;4856730;29;20132;-73
2023/11/12 00:03:50;;;;;;;12.82;5.22;;;11.50;96.70;;;;;;4872146;29;20127;-73
2023/11/12 00:06:21;;;;;;;13.27;4.47;;;11.40;96.70;;;;;;4870671;29;20065;-73
2023/11/12 00:08:52;;;;;;;12.43;5.38;;;11.40;96.70;;;;;;4879919;29;20089;-73
2023/11/12 00:11:22;;;;;;;10.40;4.40;;;11.30;96.70;;;;;;4881907;29;20084;-73
2023/11/12 00:13:52;;;;;;;10.32;4.50;;;11.40;96.70;;;;;;4867235;29;20084;-74
2023/11/12 00:16:28;;;;;;;9.10;4.22;;;11.40;96.70;;;;;;4872199;29;20124;-73
2023/11/12 00:18:58;;;;;;;10.98;4.38;;;11.40;96.70;;;;;;4904040;29;20055;-74
2023/11/12 00:21:30;;;;;;;10.50;3.80;;;11.40;96.70;;;;;;4917549;29;20054;-73
2023/11/12 00:24:02;;;;;;;10.43;4.40;;;11.40;96.70;;;;;;4888270;29;20071;-73
2023/11/12 00:26:50;;;;;;;;;;;;;;;;;;;;;
2023/11/12 00:29:24;;;;;;;13.35;4.88;;;11.30;96.70;;;;;;4923075;29;20485;-74
2023/11/12 00:31:53;;;;;;;11.88;4.20;;;11.30;96.70;;;;;;4883319;29;20060;-73
2023/11/12 00:34:23;;;;;;;8.25;4.07;;;11.20;96.70;;;;;;4889238;29;20068;-73
2023/11/12 00:36:53;;;;;;;10.43;4.05;;;11.20;96.70;;;;;;4899461;29;20060;-72
2023/11/12 00:39:23;;;;;;;11.85;3.90;;;11.20;96.70;;;;;;4915654;29;20498;-73
2023/11/12 00:41:54;;;;;;;7.82;3.90;;;11.30;96.70;;;;;;4924583;29;20048;-73
2023/11/12 00:44:24;;;;;;;10.75;3.90;;;11.30;96.70;;;;;;4898840;29;20048;-73
2023/11/12 00:46:54;;;;;;;9.85;3.90;;;11.30;96.70;;;;;;4923076;29;20056;-74
2023/11/12 00:49:23;;;;;;;9.30;3.78;;;11.30;96.70;;;;;;4923265;29;20063;-74
2023/11/12 00:51:55;;;;;;;9.40;3.50;;;11.30;96.70;;;;;;4915084;29;20139;-74
2023/11/12 00:54:24;;;;;;;8.55;3.70;;;11.30;96.70;;;;;;4926799;29;20147;-74
2023/11/12 00:56:54;;;;;;;8.82;3.38;;;11.30;96.70;;;;;;4915636;29;20063;-73
2023/11/12 00:59:29;;;;;;;6.53;3.20;;;11.30;96.70;;;;;;4889872;29;20130;-73
2023/11/12 01:01:59;;;;;;;8.13;3.30;;;11.30;96.70;;;;;;4915038;29;20055;-74
2023/11/12 01:04:28;;;;;;;7.35;3.13;;;11.30;96.70;;;;;;4901553;29;20078;-74
2023/11/12 01:07:00;;;;;;;12.23;3.70;;;11.20;96.70;;;;;;4928638;29;20079;-73
2023/11/12 01:09:30;;;;;;;8.88;3.45;;;11.20;96.70;;;;;;4902175;29;20052;-73
2023/11/12 01:11:59;;;;;;;7.00;3.25;;;11.20;96.70;;;;;;4909760;29;20051;-74
2023/11/12 01:14:28;;;;;;;7.72;2.92;;;11.20;96.70;;;;;;4915093;29;20147;-73
2023/11/12 01:17:01;;;;;;;7.85;3.22;;;11.30;96.70;;;;;;4889064;29;20047;-74
2023/11/12 01:19:37;;;;;;;13.30;3.75;;;11.20;96.70;;;;;;4906074;29;20048;-73
2023/11/12 01:22:08;;;;;;;11.27;3.70;;;11.20;96.70;;;;;;4888688;29;20111;-74
2023/11/12 01:24:38;;;;;;;7.50;2.50;;;11.20;96.70;;;;;;4900253;29;20877;-74
2023/11/12 01:27:08;;;;;;;9.10;2.33;;;11.10;96.70;;;;;;4912519;29;20060;-73
2023/11/12 01:29:38;;;;;;;8.90;2.83;;;11.10;96.70;;;;;;4922920;29;20048;-73
2023/11/12 01:32:09;;;;;;;8.95;2.72;;;11.10;96.70;;;;;;4896263;29;20052;-73
2023/11/12 01:34:40;;;;;;;7.20;2.55;;;11.10;96.70;;;;;;4914160;29;20044;-74
2023/11/12 01:37:12;;;;;;;9.90;3.05;;;11.10;96.70;;;;;;4923908;29;20056;-73
2023/11/12 01:39:52;;;;;;;5.72;2.50;;;11.10;96.70;;;;;;4932457;29;20504;-75
2023/11/12 01:42:28;;;;;;;6.72;2.20;;;11.10;96.70;;;;;;4898644;29;20044;-73
2023/11/12 01:45:04;;;;;;;12.30;2.75;;;11.10;96.70;;;;;;4920272;29;20050;-74
2023/11/12 01:47:55;;;;;;;6.22;2.20;;;11.10;96.70;;;;;;4890110;29;20625;-74
2023/11/12 01:50:27;;;;;;;6.43;2.75;;;11.10;96.70;;;;;;4926581;29;20055;-73
2023/11/12 01:52:58;;;;;;;7.40;3.03;;;11.10;96.70;;;;;;4889860;29;20056;-74
2023/11/12 01:55:39;;;;;;;7.47;2.88;;;11.10;96.70;;;;;;4901437;29;20076;-74
2023/11/12 01:58:09;;;;;;;8.95;2.78;;;11.20;96.70;;;;;;4887618;29;20071;-74
2023/11/12 02:00:40;;;;;;;8.13;2.70;;;11.20;96.70;;;;;;4886064;29;20087;-74
2023/11/12 02:03:15;;;;;;;8.27;2.70;;;11.20;96.70;;;;;;4905599;29;20101;-73
2023/11/12 02:05:45;;;;;;;7.93;2.40;;;11.20;96.70;;;;;;4892401;29;20083;-74
2023/11/12 02:08:20;;;;;;;8.43;3.45;;;11.20;96.70;;;;;;4892857;29;20052;-74
2023/11/12 02:10:50;;;;;;;10.88;2.45;;;11.20;96.70;;;;;;4897577;29;20044;-74
2023/11/12 02:13:21;;;;;;;9.18;2.47;;;11.20;96.70;;;;;;4897379;29;20078;-74
2023/11/12 02:16:00;;;;;;;6.13;2.25;;;11.20;96.70;;;;;;4890141;29;20086;-73
2023/11/12 02:18:32;;;;;;;4.82;2.00;;;11.20;96.70;;;;;;4902210;29;20500;-74
2023/11/12 02:21:05;;;;;;;5.15;2.13;;;11.20;96.70;;;;;;4925121;29;20063;-73
2023/11/12 02:23:38;;;;;;;7.28;2.47;;;11.20;96.70;;;;;;4897678;29;20052;-74
2023/11/12 02:26:08;;;;;;;6.15;1.75;;;11.20;96.70;;;;;;4884463;29;20587;-73
2023/11/12 02:28:38;;;;;;;6.72;2.22;;;11.20;96.70;;;;;;4928714;29;20051;-74
2023/11/12 02:31:08;;;;;;;6.75;2.25;;;11.20;96.70;;;;;;4907384;29;20087;-73
2023/11/12 02:33:38;;;;;;;9.80;2.47;;;11.10;96.70;;;;;;4907046;29;20084;-73
2023/11/12 02:36:17;;;;;;;6.40;1.90;;;11.00;96.70;;;;;;4928617;29;20059;-74
2023/11/12 02:38:51;;;;;;;8.35;2.30;;;11.00;96.70;;;;;;4920397;29;20052;-74
2023/11/12 02:41:23;;;;;;;8.38;2.17;;;11.00;96.70;;;;;;4922232;29;20083;-74
2023/11/12 02:43:55;;;;;;;5.47;1.92;;;11.00;96.70;;;;;;4922791;29;20508;-73
2023/11/12 02:46:25;;;;;;;5.47;1.55;;;11.10;96.70;;;;;;4926040;29;20445;-74
2023/11/12 02:49:27;;;;;;;5.93;1.98;;;11.10;96.70;;;;;;4925334;29;20150;-74
2023/11/12 02:51:56;;;;;;;5.10;1.98;;;11.10;96.70;;;;;;4922202;29;20099;-74
2023/11/12 02:54:27;;;;;;;5.10;2.05;;;11.10;96.70;;;;;;4905979;29;20052;-73
2023/11/12 02:56:59;;;;;;;7.88;2.35;;;11.10;96.70;;;;;;4899516;29;20047;-74
2023/11/12 02:59:29;;;;;;;7.30;1.63;;;11.10;96.70;;;;;;4897158;29;20056;-74
2023/11/12 03:01:59;;;;;;;6.70;1.67;;;11.10;96.70;;;;;;4916513;29;20040;-73
2023/11/12 03:05:24;;;;;;;6.38;2.05;;;11.10;96.70;;;;;;4892485;29;20067;-74
2023/11/12 03:07:59;;;;;;;6.93;2.03;;;11.00;96.70;;;;;;4861704;29;20053;-74
2023/11/12 03:10:31;;;;;;;4.72;1.70;;;11.00;96.70;;;;;;4855256;29;20726;-74
2023/11/12 03:13:09;;;;;;;5.55;2.20;;;10.90;96.70;;;;;;4899185;29;20142;-74
2023/11/12 03:15:42;;;;;;;4.85;1.65;;;10.90;96.70;;;;;;4912517;29;20091;-74
2023/11/12 03:18:17;;;;;;;7.53;1.90;;;10.90;96.70;;;;;;4924186;29;20055;-74
2023/11/12 03:20:46;;;;;;;4.32;1.63;;;10.80;96.70;;;;;;4907991;29;20138;-74
2023/11/12 03:23:18;;;;;;;6.18;1.55;;;10.90;96.70;;;;;;4924486;29;20071;-74
2023/11/12 03:25:50;;;;;;;8.13;2.47;;;11.00;96.70;;;;;;4929175;29;20085;-73
2023/11/12 03:28:20;;;;;;;3.97;1.67;;;11.10;96.70;;;;;;4912656;29;20662;-74
2023/11/12 03:30:50;;;;;;;4.80;1.52;;;11.10;96.70;;;;;;4894624;29;20107;-74
2023/11/12 03:33:20;;;;;;;5.30;1.83;;;11.10;96.70;;;;;;4895493;29;20111;-74
2023/11/12 03:35:50;;;;;;;6.57;1.65;;;11.10;96.70;;;;;;4924300;29;20047;-74
2023/11/12 03:38:20;;;;;;;6.10;1.80;;;11.10;96.70;;;;;;4919398;29;20821;-74
2023/11/12 03:40:51;;;;;;;7.15;1.92;;;11.00;96.70;;;;;;4891457;29;20520;-74
2023/11/12 03:43:21;;;;;;;8.45;2.00;;;11.00;96.70;;;;;;4895589;29;20084;-74
2023/11/12 03:45:51;;;;;;;7.35;1.80;;;11.00;96.70;;;;;;4909436;29;20175;-74
2023/11/12 03:48:23;;;;;;;4.82;1.75;;;11.00;96.70;;;;;;4919227;29;20055;-74
2023/11/12 03:50:53;;;;;;;5.30;1.90;;;11.10;96.70;;;;;;4919638;29;20138;-73
2023/11/12 03:53:22;;;;;;;6.07;1.90;;;11.10;96.70;;;;;;4907462;29;20055;-74
2023/11/12 03:55:56;;;;;;;5.18;2.03;;;11.10;96.70;;;;;;4916098;29;20054;-74
2023/11/12 03:58:26;;;;;;;4.97;1.92;;;11.10;96.70;;;;;;4923186;29;20083;-74
2023/11/12 04:00:59;;;;;;;7.68;2.10;;;11.20;96.70;;;;;;4917812;29;20040;-74
2023/11/12 04:03:29;;;;;;;4.55;2.10;;;11.20;96.70;;;;;;4920391;29;20059;-74
2023/11/12 04:05:59;;;;;;;6.28;1.73;;;11.10;96.70;;;;;;4902400;29;20047;-74
2023/11/12 04:08:49;;;;;;;7.38;2.45;;;11.10;96.70;;;;;;4903549;29;20456;-74
2023/11/12 04:11:47;;;;;;;6.68;1.50;;;11.10;96.70;;;;;;4903497;29;20043;-74
2023/11/12 04:14:17;;;;;;;6.60;1.92;;;11.10;96.70;;;;;;4915678;29;20051;-74
2023/11/12 04:16:51;;;;;;;5.28;1.98;;;11.10;96.70;;;;;;4913268;29;20087;-74
2023/11/12 04:19:28;;;;;;;3.38;2.00;;;11.00;96.70;;;;;;4927445;29;20055;-74
2023/11/12 04:22:01;;;;;;;5.78;1.95;;;10.90;96.70;;;;;;4913413;29;20056;-76
2023/11/12 04:24:30;;;;;;;8.10;1.70;;;10.70;96.70;;;;;;4881861;29;20096;-76
2023/11/12 04:27:21;;;;;;;5.70;1.65;;;10.70;96.70;;;;;;4897645;29;20138;-73
2023/11/12 04:29:51;;;;;;;5.93;1.52;;;10.80;96.70;;;;;;4900754;29;20064;-73
2023/11/12 04:32:52;;;;;;;6.80;1.85;;;10.70;96.70;;;;;;4873162;29;20914;-73
2023/11/12 04:35:22;;;;;;;6.60;1.60;;;10.80;96.70;;;;;;4920274;29;20087;-76
2023/11/12 04:37:52;;;;;;;5.57;1.90;;;10.90;96.70;;;;;;4894858;29;20105;-75
2023/11/12 04:40:22;;;;;;;3.85;2.00;;;10.90;96.70;;;;;;4899731;29;20055;-75
2023/11/12 04:42:54;;;;;;;7.55;1.92;;;10.90;96.70;;;;;;4902818;29;20063;-76
2023/11/12 04:45:24;;;;;;;6.45;1.83;;;10.80;96.70;;;;;;4913103;29;20055;-75
2023/11/12 04:47:56;;;;;;;5.53;1.70;;;10.80;96.70;;;;;;4907150;29;20112;-75
2023/11/12 04:50:26;;;;;;;5.95;1.50;;;10.80;96.70;;;;;;4911912;29;20131;-75
2023/11/12 04:52:55;;;;;;;6.45;1.77;;;10.80;96.70;;;;;;4898007;29;20082;-75
2023/11/12 04:55:24;;;;;;;8.55;2.00;;;10.80;96.70;;;;;;4920891;29;20095;-75
2023/11/12 04:57:55;;;;;;;7.63;2.15;;;10.80;96.70;;;;;;4929513;29;20047;-76
2023/11/12 05:00:24;;;;;;;7.30;1.38;;;10.80;96.70;;;;;;4921186;29;20582;-75
2023/11/12 05:02:55;;;;;;;10.00;1.88;;;10.80;96.70;;;;;;4912911;29;20131;-75
2023/11/12 05:05:24;;;;;;;10.93;1.73;;;10.90;96.70;;;;;;4903270;29;20111;-75
2023/11/12 05:07:53;;;;;;;6.30;1.30;;;11.10;96.70;;;;;;4897895;29;20052;-75
2023/11/12 05:10:23;;;;;;;6.28;1.25;;;11.10;96.70;;;;;;4924349;29;20527;-75
2023/11/12 05:13:13;;;;;;;5.32;1.48;;;11.10;96.70;;;;;;4894386;29;20103;-75
2023/11/12 05:15:43;;;;;;;6.00;1.40;;;11.20;96.70;;;;;;4924954;29;20107;-75
2023/11/12 05:18:12;;;;;;;7.18;1.90;;;11.20;96.70;;;;;;4916819;29;20215;-76
2023/11/12 05:20:42;;;;;;;4.07;1.60;;;11.30;96.70;;;;;;4921288;29;20052;-75
2023/11/12 05:23:13;;;;;;;5.90;1.52;;;11.30;96.70;;;;;;4922965;29;20115;-75
2023/11/12 05:25:42;;;;;;;5.53;1.50;;;11.30;96.70;;;;;;4909269;29;20067;-75
2023/11/12 05:28:13;;;;;;;10.18;1.90;;;11.30;96.70;;;;;;4910535;29;20512;-75
2023/11/12 05:30:43;;;;;;;7.63;1.63;;;11.30;96.70;;;;;;4918035;29;20048;-76
2023/11/12 05:33:15;;;;;;;5.50;1.20;;;11.40;96.70;;;;;;4891168;29;20516;-73
2023/11/12 05:35:55;;;;;;;3.38;1.20;;;11.40;96.70;;;;;;4922676;29;20132;-74
2023/11/12 05:38:25;;;;;;;5.35;1.52;;;11.40;96.70;;;;;;4905674;29;20071;-74
2023/11/12 05:40:55;;;;;;;6.15;1.58;;;11.40;96.70;;;;;;4897602;29;20676;-74
2023/11/12 05:43:32;;;;;;;5.47;1.63;;;11.40;96.70;;;;;;4898356;29;20500;-74
2023/11/12 05:46:18;;;;;;;6.05;1.58;;;11.30;96.70;;;;;;4920440;29;20049;-74
2023/11/12 05:48:48;;;;;;;4.78;1.58;;;11.40;96.70;;;;;;4913725;29;20170;-73
2023/11/12 05:51:19;;;;;;;5.43;1.65;;;11.40;96.70;;;;;;4888092;29;20064;-73
2023/11/12 05:54:12;;;;;;;10.32;1.63;;;11.40;96.70;;;;;;4914337;29;20200;-73
2023/11/12 05:56:49;;;;;;;7.50;1.85;;;11.40;96.70;;;;;;4898501;29;20572;-73
2023/11/12 05:59:20;;;;;;;9.23;2.22;;;11.40;96.70;;;;;;4919376;29;20166;-73
2023/11/12 06:01:52;;;;;;;4.30;1.73;;;11.40;96.70;;;;;;4914585;29;20052;-74
2023/11/12 06:05:18;;;;;;;6.18;1.42;;;11.40;96.70;;;;;;4914852;29;20044;-74
2023/11/12 06:11:17;;;;;;;4.82;1.25;;;11.40;96.70;;;;;;4900804;29;20071;-74
2023/11/12 06:13:46;;;;;;;7.97;2.22;;;11.50;96.70;;;;;;4914286;29;20052;-74
2023/11/12 06:16:17;;;;;;;7.63;1.60;;;11.50;96.70;;;;;;4906184;29;20108;-74
2023/11/12 06:18:48;;;;;;;11.05;1.98;;;11.50;96.70;;;;;;4899890;29;20501;-74
2023/11/12 06:21:18;;;;;;;4.15;1.10;;;11.40;96.70;;;;;;4903096;29;20055;-74
2023/11/12 06:23:48;;;;;;;3.88;1.25;;;11.50;96.70;;;;;;4922197;29;20079;-74
2023/11/12 06:26:20;;;;;;;5.20;1.45;;;11.50;96.70;;;;;;4913716;29;20048;-74
2023/11/12 06:28:50;;;;;;;5.55;1.77;;;11.60;96.70;;;;;;4926768;29;20502;-74
2023/11/12 06:31:21;;;;;;;7.68;1.40;;;11.60;96.70;;;;;;4923239;29;20078;-74
2023/11/12 06:33:50;;;;;;;4.55;1.23;;;11.50;96.70;;;;;;4901340;29;20504;-74
2023/11/12 06:36:21;;;;;;;6.30;1.45;;;11.40;96.70;;;;;;4913894;29;20122;-75
2023/11/12 06:38:51;;;;;;;9.50;2.13;;;11.50;96.70;;;;;;4906245;29;20048;-74
2023/11/12 06:41:23;;;;;;;6.68;1.60;;;11.60;96.70;;;;;;4906637;29;20118;-74
2023/11/12 06:43:51;;;;;;;7.60;1.48;;;11.50;96.70;;;;;;4917083;29;20116;-74
2023/11/12 06:46:23;;;;;;;6.80;1.90;;;11.50;96.70;;;;;;4920560;29;20048;-75
2023/11/12 06:48:52;;;;;;;5.00;1.88;;;11.50;96.70;;;;;;4912927;29;20342;-73
2023/11/12 06:51:22;;;;;;;4.35;1.45;;;11.50;96.70;;;;;;4913919;29;20429;-73
2023/11/12 06:53:52;;;;;;;5.28;1.45;;;11.60;96.70;;;;;;4917470;29;20054;-73
2023/11/12 06:56:31;;;;;;;5.65;1.52;;;11.60;96.70;;;;;;4913099;29;20040;-73
2023/11/12 06:59:07;;;;;;;9.75;3.17;;;11.60;96.70;;;;;;4912888;29;20052;-73
2023/11/12 07:01:42;;;;;;;6.95;3.58;;;11.70;96.70;;;;;;4896846;29;20130;-73
2023/11/12 07:04:12;;;;;;;9.15;4.00;;;11.70;96.70;;;;;;4912371;29;20044;-74
2023/11/12 07:06:42;;;;;;;9.52;3.90;;;11.70;96.70;;;;;;4896084;29;20051;-73
2023/11/12 07:09:28;;;;;;;9.75;3.15;;;11.80;96.70;;;;;;4896775;29;20056;-73
2023/11/12 07:11:57;;;;;;;7.30;3.85;;;11.80;96.70;;;;;;4921765;29;20036;-73
2023/11/12 07:14:27;;;;;;;7.10;3.15;;;11.90;96.70;;;;;;4907382;29;20052;-73
2023/11/12 07:16:57;;;;;;;5.57;3.28;;;11.90;96.70;;;;;;4927897;29;20051;-74
2023/11/12 07:19:26;;;;;;;7.22;3.20;;;12.00;96.70;;;;;;4895441;29;20516;-73
2023/11/12 07:22:01;;;;;;;5.38;3.38;;;12.00;96.70;;;;;;4903063;29;20091;-73
2023/11/12 07:24:44;;;;;;;;;;;;;;;;;;;;;
2023/11/12 07:27:14;;;;;;;10.02;3.17;;;12.00;96.70;;;;;;4923536;29;20043;-73
2023/11/12 07:29:45;;;;;;;6.95;1.83;;;12.00;96.70;;;;;;4920559;29;20048;-73
2023/11/12 07:32:18;;;;;;;3.90;1.80;;;12.00;96.70;;;;;;4921405;29;20047;-73
2023/11/12 07:34:47;;;;;;;6.40;1.48;;;12.00;96.70;;;;;;4917093;29;20123;-73
2023/11/12 07:37:25;;;;;;;3.78;2.10;;;12.10;96.70;;;;;;4923545;29;20060;-74
2023/11/12 07:39:55;;;;;;;6.50;3.03;;;12.10;96.70;;;;;;4896143;29;20048;-73
2023/11/12 07:42:24;;;;;;;7.75;4.80;;;12.10;96.70;;;;;;4919562;29;20130;-73
2023/11/12 07:44:54;;;;;;;4.53;2.30;;;12.20;96.70;;;;;;4912489;29;20123;-73
2023/11/12 07:47:40;;;;;;;6.57;2.58;;;12.20;96.70;;;;;;4897936;29;20051;-73
2023/11/12 07:50:10;;;;;;;5.47;1.25;;;12.30;96.70;;;;;;4911449;29;20118;-73
2023/11/12 07:52:49;;;;;;;1.95;0.70;;;12.30;96.70;;;;;;4901932;29;20099;-73
2023/11/12 07:55:35;;;;;;;;;;;;;;;;;;;;;
2023/11/12 07:58:07;;;;;;;3.20;1.17;;;12.40;96.70;;;;;;4925067;29;20510;-73
2023/11/12 08:00:36;;;;;;;3.83;1.02;;;12.40;96.70;;;;;;4903360;29;20056;-73
2023/11/12 08:03:07;;;;;;;3.22;0.77;;;12.40;96.70;;;;;;4895616;29;20078;-73
2023/11/12 08:05:40;;;;;;;2.47;0.75;;;12.40;96.70;;;;;;4916718;29;20051;-73
2023/11/12 08:08:09;;;;;;;4.47;2.15;;;12.40;96.70;;;;;;4895015;29;20817;-73
2023/11/12 08:10:42;;;;;;;4.05;1.25;;;12.50;96.70;;;;;;4921270;29;20043;-73
2023/11/12 08:13:11;;;;;;;3.10;0.90;;;12.50;96.70;;;;;;4920321;29;20063;-73
2023/11/12 08:15:40;;;;;;;4.57;1.13;;;12.60;96.70;;;;;;4918008;29;20047;-73
2023/11/12 08:18:11;;;;;;;3.50;1.08;;;12.60;96.70;;;;;;4889080;29;20051;-73
2023/11/12 08:20:41;;;;;;;9.88;3.05;;;12.60;96.70;;;;;;4880392;29;20056;-73
2023/11/12 08:23:10;;;;;;;9.65;5.60;;;12.60;96.70;;;;;;4895087;29;20131;-73
2023/11/12 08:25:39;;;;;;;10.40;6.63;;;12.60;96.70;;;;;;4897978;29;20056;-73
2023/11/12 08:28:08;;;;;;;9.90;5.70;;;12.60;96.70;;;;;;4892206;29;20576;-73
2023/11/12 08:33:47;;;;;;;;;;;12.70;96.70;;;;;;4917519;29;20052;-74
2023/11/12 08:36:16;;;;;;;2.95;1.20;;;12.70;96.70;;;;;;4914283;29;19940;-73
2023/11/12 08:38:45;;;;;;;4.72;1.60;;;12.80;96.70;;;;;;4924467;29;20044;-73
2023/11/12 08:41:14;;;;;;;2.80;0.70;;;12.80;96.70;;;;;;4919257;29;20051;-73
2023/11/12 08:43:45;;;;;;;2.88;1.02;;;12.80;96.70;;;;;;4897671;29;20062;-73
2023/11/12 08:46:16;;;;;;;3.35;0.90;;;12.90;96.70;;;;;;4907061;29;20129;-73
2023/11/12 08:48:45;;;;;;;3.72;0.75;;;12.90;96.70;;;;;;4908915;29;20056;-73
2023/11/12 08:51:17;;;;;;;3.45;0.90;;;12.90;96.70;;;;;;4906971;29;20603;-73
2023/11/12 08:53:46;;;;;;;5.53;0.95;;;13.00;96.70;;;;;;4904021;29;20067;-73
2023/11/12 08:56:16;;;;;;;1.90;0.70;;;13.00;96.70;;;;;;4904769;29;20040;-74
2023/11/12 08:58:45;;;;;;;3.83;1.15;;;13.00;96.70;;;;;;4906130;29;20621;-73
2023/11/12 09:01:15;;;;;;;4.57;1.00;;;13.00;96.70;;;;;;4897923;29;20107;-73
2023/11/12 09:03:44;;;;;;;4.63;1.00;;;13.00;96.70;;;;;;4914333;29;20044;-73
2023/11/12 09:06:15;;;;;;;2.35;0.85;;;13.10;96.70;;;;;;4917692;29;20055;-73
2023/11/12 09:08:45;;;;;;;1.83;0.60;;;13.10;96.70;;;;;;4909746;29;20044;-73
2023/11/12 09:11:15;;;;;;;13.60;7.82;;;13.20;96.70;;;;;;4907569;29;20043;-72
2023/11/12 09:13:45;;;;;;;9.50;4.78;;;13.20;96.70;;;;;;4899770;29;20394;-73
2023/11/12 09:16:14;;;;;;;9.70;3.75;;;13.20;96.70;;;;;;4897195;29;20051;-74
2023/11/12 09:18:43;;;;;;;6.88;2.63;;;13.20;96.70;;;;;;4915381;29;20125;-73
2023/11/12 09:21:12;;;;;;;3.28;1.15;;;13.30;96.70;;;;;;4884294;29;20088;-73
2023/11/12 09:23:43;;;;;;;4.07;1.30;;;13.20;96.70;;;;;;4897671;29;20412;-72
2023/11/12 09:26:20;;;;;;;6.22;1.80;;;13.20;96.70;;;;;;4885338;29;20457;-72
2023/11/12 09:29:11;;;;;;;2.60;1.02;;;13.20;96.70;;;;;;4929773;29;20066;-72
2023/11/12 09:31:42;;;;;;;5.53;1.17;;;13.20;96.70;;;;;;4911215;29;20390;-72
2023/11/12 09:34:13;;;;;;;2.25;1.00;;;13.20;96.70;;;;;;4900753;29;20508;-72
2023/11/12 09:36:42;;;;;;;5.32;1.80;;;13.20;96.70;;;;;;4894822;29;20083;-71
2023/11/12 09:39:14;;;;;;;3.22;1.33;;;13.20;96.70;;;;;;4919484;29;20059;-72
2023/11/12 09:41:51;;;;;;;2.92;1.40;;;13.20;96.70;;;;;;4919010;29;20050;-72
2023/11/12 09:44:29;;;;;;;4.38;1.50;;;13.20;96.70;;;;;;4902344;29;20520;-72
2023/11/12 09:47:15;;;;;;;4.05;1.42;;;13.20;96.70;;;;;;4913379;29;20084;-72
2023/11/12 09:49:47;;;;;;;5.93;1.23;;;13.20;96.70;;;;;;4907349;29;20048;-73
2023/11/12 09:52:17;;;;;;;6.00;1.45;;;13.20;96.70;;;;;;4898296;29;20549;-73
2023/11/12 09:54:51;;;;;;;3.22;1.27;;;13.10;96.70;;;;;;4900515;29;20044;-74
2023/11/12 09:57:23;;;;;;;3.97;0.85;;;13.10;96.70;;;;;;4901496;29;20107;-73
2023/11/12 10:00:38;;;;;;;3.80;1.10;;;13.00;96.70;;;;;;4897907;29;20066;-73
2023/11/12 10:03:14;;;;;;;1.80;0.80;;;13.10;96.70;;;;;;4916967;29;20059;-73
2023/11/12 10:05:44;;;;;;;4.97;2.92;;;13.10;96.70;;;;;;4928368;29;20134;-72
2023/11/12 10:08:46;;;;;;;5.13;2.95;;;13.20;96.70;;;;;;4924875;29;20055;-73
2023/11/12 10:11:20;;;;;;;6.65;1.73;;;13.30;96.70;;;;;;4905671;29;20063;-72
2023/11/12 10:14:35;;;;;;;4.15;1.45;;;13.40;96.70;;;;;;4927943;29;20067;-72
2023/11/12 10:17:26;;;;;;;3.33;1.05;;;13.50;96.70;;;;;;4921735;29;20131;-72
2023/11/12 10:19:57;;;;;;;2.08;1.33;;;13.70;96.70;;;;;;4894975;29;20056;-73
2023/11/12 10:22:39;;;;;;;3.60;1.23;;;13.80;96.70;;;;;;4927913;29;20062;-72
2023/11/12 10:25:47;;;;;;;3.45;1.40;;;13.90;96.70;;;;;;4901345;29;20083;-72
2023/11/12 10:28:34;;;;;;;3.08;1.60;;;13.90;96.70;;;;;;4929199;29;20047;-73
2023/11/12 10:31:07;;;;;;;2.28;1.50;;;13.90;96.70;;;;;;4925151;29;20090;-73
2023/11/12 10:33:37;;;;;;;3.38;1.65;;;14.00;96.70;;;;;;4923649;29;20103;-72
2023/11/12 10:36:13;;;;;;;2.50;1.40;;;14.00;96.70;;;;;;4927371;29;20052;-72
2023/11/12 10:38:47;;;;;;;2.40;1.20;;;14.00;96.70;;;;;;4909667;29;20047;-73
2023/11/12 10:41:20;;;;;;;4.45;1.73;;;14.00;96.70;;;;;;4920187;29;20048;-75
2023/11/12 10:44:08;;;;;;;3.70;1.40;;;14.00;96.70;;;;;;4915900;29;20055;-76
2023/11/12 10:46:50;;;;;;;3.05;1.40;;;14.00;96.70;;;;;;4906123;29;20099;-75
2023/11/12 10:49:20;;;;;;;2.83;1.30;;;14.10;96.70;;;;;;4904741;29;20055;-76
2023/11/12 10:51:50;;;;;;;2.15;1.10;;;14.10;96.70;;;;;;4923075;29;20075;-75
2023/11/12 10:55:15;;;;;;;3.88;1.92;;;14.10;96.70;;;;;;4917263;29;20527;-75
2023/11/12 10:58:10;;;;;;;3.15;1.50;;;14.20;96.70;;;;;;4910270;29;20052;-75
2023/11/12 11:00:42;;;;;;;1.77;1.35;;;14.20;96.70;;;;;;4909970;29;20058;-75
2023/11/12 11:03:12;;;;;;;1.92;1.30;;;14.20;96.70;;;;;;4918649;29;20055;-75
2023/11/12 11:05:42;;;;;;;1.60;1.13;;;14.30;96.70;;;;;;4902344;29;20456;-76
2023/11/12 11:08:22;;;;;;;1.60;1.00;;;14.40;96.70;;;;;;4912896;29;20059;-75
2023/11/12 11:10:56;;;;;;;1.27;0.70;;;14.40;96.70;;;;;;4899176;29;20460;-76
2023/11/12 11:13:29;;;;;;;1.67;1.05;;;14.40;96.70;;;;;;4904952;29;20051;-76
2023/11/12 11:20:37;;;;;;;1.90;0.90;;;14.30;96.70;;;;;;4895316;29;20128;-76
2023/11/12 11:23:41;;;;;;;2.83;2.20;;;14.30;96.70;;;;;;4881846;29;20048;-75
2023/11/12 11:30:14;;;;;;;1.75;1.13;;;14.20;96.70;;;;;;4894402;29;20053;-76
2023/11/12 11:33:06;;;;;;;1.50;1.00;;;14.20;96.70;;;;;;4890925;29;20060;-75
2023/11/12 11:39:46;;;;;;;2.15;1.30;;;14.10;96.70;;;;;;4880649;29;20053;-76
2023/11/12 11:42:29;;;;;;;2.45;1.75;;;14.10;96.70;;;;;;4869964;29;20080;-76
2023/11/12 11:45:25;;;;;;;2.28;1.77;;;14.00;96.70;;;;;;4876763;29;20076;-75
2023/11/12 11:48:21;;;;;;;1.38;0.95;;;14.00;96.70;;;;;;4877123;29;20049;-75
2023/11/12 11:50:51;;;;;;;1.35;0.90;;;13.90;96.70;;;;;;4894299;29;20123;-75
2023/11/12 11:54:15;;;;;;;1.65;1.15;;;13.90;96.70;;;;;;4893293;29;20557;-76
2023/11/12 11:57:13;;;;;;;1.88;1.00;;;13.90;96.70;;;;;;4912577;29;20065;-76
2023/11/12 12:00:22;;;;;;;2.13;1.30;;;13.90;96.70;;;;;;4889560;29;20124;-76
2023/11/12 12:02:53;;;;;;;1.88;1.40;;;13.90;96.70;;;;;;4862039;29;20048;-75
2023/11/12 12:05:32;;;;;;;2.35;1.65;;;13.90;96.70;;;;;;4909765;29;20048;-76
2023/11/12 12:08:10;;;;;;;2.83;1.75;;;13.90;96.70;;;;;;4881458;29;20473;-76
2023/11/12 12:12:09;;;;;;;;;;;;;;;;;;;;;
2023/11/12 12:15:26;;;;;;;3.05;2.15;;;13.90;96.70;;;;;;4886495;29;20042;-75
2023/11/12 12:17:56;;;;;;;5.65;4.95;;;13.90;96.70;;;;;;4914338;29;20518;-76
2023/11/12 12:20:38;;;;;;;4.05;3.03;;;13.80;96.70;;;;;;4910457;29;20072;-75
2023/11/12 12:27:28;;;;;;;3.38;2.50;;;13.90;96.70;;;;;;4866931;29;20060;-75
2023/11/12 12:30:59;;;;;;;2.42;1.98;;;13.90;96.70;;;;;;4865750;29;20636;-75
2023/11/12 12:33:35;;;;;;;2.75;1.80;;;13.90;96.70;;;;;;4873514;29;20053;-75
2023/11/12 12:36:17;;;;;;;3.08;1.50;;;13.90;96.70;;;;;;4836964;29;20088;-75
2023/11/12 12:39:14;;;;;;;;;;;;;;;;;;;;;
2023/11/12 12:42:22;;;;;;;3.97;2.22;;;13.80;96.70;;;;;;4868291;29;20063;-77
2023/11/12 12:44:51;;;;;;;3.63;2.53;;;13.80;96.70;;;;;;4873281;29;20045;-78
2023/11/12 12:47:33;;;;;;;4.75;3.25;;;13.90;96.70;;;;;;4877726;29;20064;-78
2023/11/12 12:50:14;;;;;;;3.00;2.22;;;13.90;96.70;;;;;;4861586;29;20051;-79
2023/11/12 12:52:45;;;;;;;2.50;2.00;;;13.90;96.70;;;;;;4856559;29;20057;-78
2023/11/12 12:55:17;;;;;;;2.05;1.58;;;13.90;96.70;;;;;;4871140;29;20063;-79
2023/11/12 12:57:49;;;;;;;3.53;2.20;;;13.90;96.70;;;;;;4885141;29;20052;-78
2023/11/12 13:00:21;;;;;;;5.03;3.65;;;13.90;96.70;;;;;;4885694;29;20056;-79
2023/11/12 13:02:52;;;;;;;3.67;2.72;;;13.90;96.70;;;;;;4895470;29;20052;-78
2023/11/12 13:05:25;;;;;;;3.03;2.08;;;13.90;96.70;;;;;;4895862;29;20104;-75
2023/11/12 13:07:55;;;;;;;3.58;1.45;;;13.90;96.70;;;;;;4890055;29;20052;-76
2023/11/12 13:10:25;;;;;;;2.63;1.48;;;13.90;96.70;;;;;;4910585;29;20053;-76
2023/11/12 13:12:59;;;;;;;2.25;1.73;;;13.90;96.70;;;;;;4895238;29;20083;-75
2023/11/12 13:15:28;;;;;;;3.08;2.15;;;13.80;96.70;;;;;;4898073;29;20081;-75
2023/11/12 13:18:01;;;;;;;3.83;2.10;;;13.90;96.70;;;;;;4905750;29;21317;-76
2023/11/12 13:20:32;;;;;;;4.90;3.40;;;13.90;96.70;;;;;;4897587;29;20801;-75
2023/11/12 13:23:02;;;;;;;3.15;2.50;;;13.90;96.70;;;;;;4914038;29;20048;-75
2023/11/12 13:25:31;;;;;;;4.07;2.90;;;13.90;96.70;;;;;;4923521;29;20064;-75
2023/11/12 13:28:02;;;;;;;2.72;1.83;;;13.90;96.70;;;;;;4900330;29;20044;-75
2023/11/12 13:30:32;;;;;;;2.58;1.90;;;13.80;96.70;;;;;;4925814;29;20052;-75
2023/11/12 13:33:03;;;;;;;3.70;1.90;;;13.80;96.70;;;;;;4920865;29;20059;-76
2023/11/12 13:35:32;;;;;;;3.72;2.13;;;13.80;96.70;;;;;;4904597;29;20056;-76
2023/11/12 13:38:02;;;;;;;5.03;2.80;;;13.80;96.70;;;;;;4901827;29;20044;-76
2023/11/12 13:40:33;;;;;;;4.15;3.20;;;13.80;96.70;;;;;;4917748;29;20052;-77
2023/11/12 13:43:03;;;;;;;5.10;3.47;;;13.90;96.70;;;;;;4905835;29;20058;-76
2023/11/12 13:45:32;;;;;;;3.38;2.45;;;13.90;96.70;;;;;;4921764;29;20120;-75
2023/11/12 13:48:04;;;;;;;4.93;3.22;;;13.90;96.70;;;;;;4928772;29;20051;-75
2023/11/12 13:50:43;;;;;;;3.85;3.28;;;13.90;96.70;;;;;;4883603;29;20455;-76
2023/11/12 13:53:13;;;;;;;3.70;2.63;;;13.90;96.70;;;;;;4886398;29;20062;-76
2023/11/12 13:56:01;;;;;;;2.80;2.08;;;13.90;96.70;;;;;;4914572;29;20055;-77
2023/11/12 13:58:45;;;;;;;2.95;1.73;;;13.90;96.70;;;;;;4927548;29;20051;-77